Data for 08/03/2010

Time Sea-Level Adjusted Pressure Absolute Pressure Temperature Relative Humidity Dew Point   
(mb) (inHg) (mb) (inHg) (C) (F) (%) (C) (F)
00:05 1021 30.15 850 25.1 20.2 68.3 35 4.5 40
00:10 1021 30.15 850 25.1 20 67.9 35 4.3 39.7
00:15 1021 30.15 850 25.1 20 67.9 34 3.7 38.6
00:20 1021 30.15 850 25.1 20 68 34 3.6 38.6
00:25 1021 30.15 850 25.1 20.1 68.2 33 3.7 38.7
00:30 1021 30.15 850 25.1 20.1 68.2 33 3.7 38.6
00:35 1021 30.15 850 25.1 20 68.1 34 3.9 39
00:40 1021 30.15 850 25.1 20 67.9 34 3.9 38.9
00:45 1021 30.15 850 25.1 19.8 67.7 35 4 39.2
00:50 1021 30.15 850 25.1 19.7 67.4 38 5.1 41.2
00:55 1021 30.15 850 25.1 19.1 66.3 38 4.6 40.3
01:00 1021 30.15 850 25.1 18.9 66.1 40 5.1 41.1
01:05 1021 30.15 850 25.1 18.7 65.6 41 5.4 41.8
01:10 1021 30.15 850 25.1 18.3 64.9 44 5.8 42.5
01:15 1021 30.15 850 25.1 18 64.3 45 5.9 42.6
01:20 1021 30.15 850 25.1 18.1 64.5 42 5.2 41.4
01:25 1021 30.15 850 25.1 18.5 65.2 39 4.5 40
01:30 1021 30.15 850 25.1 18.4 65.2 38 4 39.2
01:35 1021 30.15 850 25.1 18.6 65.5 37 3.9 39
01:40 1021 30.15 850 25.1 18.7 65.7 37 4 39.2
01:45 1021 30.15 850 25.1 18.8 65.8 37 3.9 39
01:50 1020 30.12 850 25.1 19 66.1 36 3.7 38.6
01:55 1020 30.12 850 25.1 19.1 66.4 36 3.9 39
02:00 1020 30.12 850 25.1 19 66.1 37 4 39.2
02:05 1020 30.12 849 25.07 18.8 65.9 37 4 39.1
02:10 1020 30.12 849 25.07 18.8 65.8 37 4 39.2
02:15 1020 30.12 849 25.07 18.7 65.6 38 4 39.3
02:20 1020 30.12 849 25.07 18.7 65.6 37 3.9 39
02:25 1020 30.12 849 25.07 18.7 65.6 38 4.1 39.4
02:30 1020 30.12 849 25.07 18.6 65.4 38 4.2 39.6
02:35 1020 30.12 849 25.07 18.4 65 39 4.1 39.4
02:40 1020 30.12 849 25.07 18.3 65 39 4.2 39.6
02:45 1020 30.12 850 25.1 18.2 64.8 39 4.3 39.7
02:50 1020 30.12 850 25.1 18.1 64.5 40 4.3 39.7
02:55 1021 30.15 850 25.1 18 64.4 40 4.4 40
03:00 1021 30.15 850 25.1 17.8 64.1 42 5 41
03:05 1021 30.15 850 25.1 17.3 63.1 43 4.8 40.7
03:10 1021 30.15 850 25.1 17.4 63.3 42 4.3 39.8
03:15 1021 30.15 850 25.1 17.3 63.2 46 5.9 42.5
03:20 1021 30.15 850 25.1 16.8 62.2 48 5.8 42.5
03:25 1021 30.15 850 25.1 16.5 61.8 49 5.8 42.5
03:30 1021 30.15 850 25.1 16.8 62.2 45 4.8 40.6
03:35 1021 30.15 850 25.1 16.9 62.5 45 5 41
03:40 1021 30.15 850 25.1 16.8 62.3 45 4.9 40.9
03:45 1021 30.15 850 25.1 16.7 62.1 45 5 41
03:50 1021 30.15 850 25.1 16.6 61.9 46 5.1 41.2
03:55 1021 30.15 850 25.1 16.4 61.5 47 5.2 41.3
04:00 1021 30.15 850 25.1 16.3 61.4 47 5 40.9
04:05 1021 30.15 850 25.1 16.5 61.7 45 4.8 40.6
04:10 1021 30.15 850 25.1 16.7 62 45 4.8 40.6
04:15 1021 30.15 850 25.1 17 62.5 44 4.7 40.5
04:20 1021 30.15 850 25.1 16.9 62.4 45 5.1 41.2
04:25 1021 30.15 850 25.1 16.4 61.5 47 5.2 41.4
04:30 1021 30.15 850 25.1 16.3 61.3 47 5.1 41.1
04:35 1021 30.15 850 25.1 16.4 61.5 46 4.8 40.6
04:40 1021 30.15 850 25.1 16.6 61.8 45 4.8 40.6
04:45 1021 30.15 850 25.1 16.6 61.8 46 4.9 40.8
04:50 1021 30.15 850 25.1 16.4 61.5 46 5 41
04:55 1021 30.15 850 25.1 16.3 61.4 47 5 41
05:00 1021 30.15 850 25.1 16.4 61.4 46 4.8 40.7
05:05 1021 30.15 850 25.1 16.3 61.3 47 4.9 40.9
05:10 1021 30.15 850 25.1 16.2 61.1 47 5 41
05:15 1021 30.15 850 25.1 16.1 61 47 4.8 40.7
05:20 1021 30.15 850 25.1 16.1 61.1 47 4.9 40.8
05:25 1021 30.15 850 25.1 16 60.8 48 5.2 41.3
05:30 1021 30.15 850 25.1 15.8 60.5 48 5.1 41.1
05:35 1021 30.15 850 25.1 15.8 60.4 48 5 40.9
05:40 1021 30.15 850 25.1 15.7 60.3 48 4.9 40.7
05:45 1021 30.15 850 25.1 15.8 60.4 48 5 41
05:50 1021 30.15 851 25.13 15.5 59.9 50 5.3 41.6
05:55 1021 30.15 851 25.13 15.2 59.3 50 4.9 40.9
06:00 1021 30.15 851 25.13 15.3 59.5 50 4.9 40.8
06:05 1021 30.15 851 25.13 15.4 59.7 49 4.9 40.8
06:10 1021 30.15 851 25.13 15.5 59.9 48 4.8 40.6
06:15 1021 30.15 851 25.13 15.4 59.7 50 5.2 41.3
06:20 1021 30.15 851 25.13 15.1 59.2 51 5.1 41.2
06:25 1021 30.15 851 25.13 15 58.9 52 5.1 41.3
06:30 1021 30.15 851 25.13 14.8 58.7 53 5.3 41.6
06:35 1021 30.15 851 25.13 14.7 58.5 55 5.8 42.5
06:40 1022 30.18 851 25.13 14.4 58 55 5.6 42
06:45 1022 30.18 851 25.13 14.4 57.9 54 5.4 41.7
06:50 1021 30.15 851 25.13 14.4 58 54 5.4 41.8
06:55 1021 30.15 851 25.13 14.7 58.5 55 5.7 42.3
07:00 1022 30.18 851 25.13 14.7 58.5 55 5.7 42.3
07:05 1022 30.18 851 25.13 15 58.9 53 5.7 42.2
07:10 1022 30.18 851 25.13 15.1 59.3 53 5.7 42.2
07:15 1022 30.18 851 25.13 15.3 59.5 53 5.8 42.5
07:20 1022 30.18 851 25.13 15.3 59.5 53 5.9 42.5
07:25 1022 30.18 851 25.13 15.5 59.9 51 5.6 42.2
07:30 1022 30.18 851 25.13 15.5 60 53 6 42.8
07:35 1022 30.18 851 25.13 15.7 60.2 53 6.2 43.2
07:40 1022 30.18 851 25.13 15.7 60.2 53 6.2 43.2
07:45 1022 30.18 851 25.13 15.9 60.6 52 6.2 43.1
07:50 1022 30.18 851 25.13 16.4 61.4 49 5.8 42.4
07:55 1022 30.18 851 25.13 17.1 62.8 48 6.1 43
08:00 1022 30.18 851 25.13 17.9 64.2 45 6.1 42.9
08:05 1022 30.18 851 25.13 18.4 65.1 46 6.7 44
08:10 1022 30.18 851 25.13 18.5 65.4 45 6.6 43.8
08:15 1022 30.18 851 25.13 18.7 65.7 46 6.8 44.3
08:20 1022 30.18 851 25.13 18.4 65.1 44 6.2 43.2
08:25 1022 30.18 851 25.13 18.5 65.3 46 6.7 44.1
08:30 1022 30.18 851 25.13 18.1 64.6 46 6.5 43.6
08:35 1022 30.18 851 25.13 18.7 65.6 43 6 42.9
08:40 1022 30.18 851 25.13 18.9 65.9 45 6.7 44
08:45 1022 30.18 851 25.13 18.5 65.3 44 6.1 43
08:50 1022 30.18 851 25.13 19 66.1 41 5.6 42.1
08:55 1022 30.18 851 25.13 18.6 65.5 44 6.3 43.4
09:00 1022 30.18 851 25.13 19 66.2 42 5.9 42.6
09:05 1022 30.18 851 25.13 19.2 66.6 42 6.3 43.3
09:10 1022 30.18 851 25.13 18.9 66.1 44 6.5 43.7
09:15 1022 30.18 851 25.13 18.5 65.2 44 6 42.7
09:20 1022 30.18 851 25.13 19 66.2 46 7.2 45
09:25 1022 30.18 851 25.13 19 66.3 45 6.8 44.3
09:30 1022 30.18 851 25.13 18.7 65.7 44 6.5 43.7
09:35 1022 30.18 851 25.13 19.4 67 40 5.6 42
09:40 1022 30.18 851 25.13 20 68 40 6.2 43.1
09:45 1022 30.18 851 25.13 19.7 67.4 39 5.6 42.1
09:50 1022 30.18 851 25.13 19.7 67.5 41 6.4 43.4
09:55 1022 30.18 851 25.13 19.3 66.8 42 6.2 43.2
10:00 1022 30.18 851 25.13 20 67.9 41 6.6 43.8
10:05 1022 30.18 851 25.13 20.7 69.3 40 6.9 44.4
10:10 1022 30.18 851 25.13 20.7 69.2 40 6.9 44.4
10:15 1022 30.18 851 25.13 20 68 42 6.8 44.2
10:20 1022 30.18 851 25.13 19.9 67.9 39 5.8 42.5
10:25 1022 30.18 851 25.13 21.1 69.9 38 6.3 43.3
10:30 1022 30.18 851 25.13 20.2 68.3 40 6.4 43.5
10:35 1022 30.18 851 25.13 20.5 68.9 39 6.3 43.3
10:40 1022 30.18 851 25.13 20.7 69.2 38 6.1 43
10:45 1022 30.18 851 25.13 20.8 69.4 39 6.3 43.4
10:50 1022 30.18 851 25.13 21.3 70.4 36 5.8 42.4
10:55 1022 30.18 851 25.13 22.1 71.7 36 6.5 43.8
11:00 1022 30.18 851 25.13 21.8 71.3 36 6.4 43.6
11:05 1022 30.18 851 25.13 21.6 70.9 36 6.2 43.2
11:10 1022 30.18 851 25.13 21.3 70.4 36 5.7 42.2
11:15 1022 30.18 851 25.13 21.6 70.8 34 5.2 41.3
11:20 1022 30.18 851 25.13 22.2 72 32 5.1 41.3
11:25 1022 30.18 851 25.13 22.6 72.8 32 5.4 41.7
11:30 1022 30.18 851 25.13 22.4 72.4 33 5.6 42.1
11:35 1022 30.18 851 25.13 22.1 71.8 32 5 41.1
11:40 1022 30.18 851 25.13 22.9 73.2 32 5.6 42.1
11:45 1022 30.18 851 25.13 22.8 73.1 31 5.2 41.3
11:50 1022 30.18 851 25.13 23.1 73.6 33 6.1 42.9
11:55 1022 30.18 851 25.13 23 73.4 32 5.5 41.9
12:00 1022 30.18 851 25.13 23.4 74.1 32 6 42.8
12:05 1022 30.18 851 25.13 23.4 74.2 31 5.6 42.1
12:10 1022 30.18 851 25.13 24.2 75.6 32 6.7 44.1
12:15 1022 30.18 851 25.13 24.5 76.2 29 5.7 42.3
12:20 1022 30.18 851 25.13 24.3 75.8 30 5.7 42.3
12:25 1022 30.18 851 25.13 24.5 76.1 29 5.5 42
12:30 1022 30.18 851 25.13 24.8 76.7 29 5.8 42.4
12:35 1022 30.18 851 25.13 25.5 77.9 28 5.8 42.4
12:40 1022 30.18 851 25.13 26.1 79 27 5.7 42.2
12:45 1022 30.18 851 25.13 25.8 78.4 28 6 42.9
12:50 1022 30.18 851 25.13 25.2 77.4 29 6.2 43.2
12:55 1022 30.18 851 25.13 25.6 78 28 5.8 42.5
13:00 1022 30.18 851 25.13 25.7 78.2 28 6 42.9
13:05 1022 30.18 851 25.13 25.5 77.9 31 7.5 45.5
13:10 1022 30.18 851 25.13 24.8 76.6 31 6.6 43.9
13:15 1022 30.18 851 25.13 24.4 76 31 6.6 43.9
13:20 1022 30.18 851 25.13 25.2 77.4 28 5.6 42.1
13:25 1022 30.18 851 25.13 25.5 77.9 29 6.6 43.8
13:30 1022 30.18 851 25.13 25.6 78 28 6.1 43
13:35 1022 30.18 851 25.13 25.2 77.4 29 6.4 43.5
13:40 1021 30.15 851 25.13 24.9 76.8 31 7 44.6
13:45 1021 30.15 851 25.13 25.7 78.2 30 6.9 44.5
13:50 1021 30.15 851 25.13 25.3 77.6 30 6.9 44.5
13:55 1021 30.15 851 25.13 25.9 78.5 28 6.1 42.9
14:00 1021 30.15 850 25.1 26.6 79.9 27 6.5 43.7
14:05 1021 30.15 850 25.1 26.2 79.2 30 7.6 45.7
14:10 1021 30.15 850 25.1 25.6 78.2 27 5.5 41.9
14:15 1021 30.15 850 25.1 27.1 80.8 26 6.2 43.2
14:20 1021 30.15 850 25.1 26.2 79.2 28 6.7 44.1
14:25 1021 30.15 850 25.1 26.1 79 27 5.9 42.6
14:30 1021 30.15 850 25.1 27.2 81 26 6.6 43.9
14:35 1021 30.15 850 25.1 27.9 82.1 26 6.7 44.1
14:40 1021 30.15 850 25.1 27.9 82.2 27 7.3 45.1
14:45 1021 30.15 850 25.1 27.1 80.7 28 7.3 45.1
14:50 1021 30.15 850 25.1 27.7 81.9 26 6.6 43.8
14:55 1021 30.15 850 25.1 28.1 82.6 25 6.6 43.9
15:00 1021 30.15 850 25.1 28.4 83.1 25 6.9 44.5
15:05 1021 30.15 850 25.1 27.7 81.9 26 6.6 43.8
15:10 1021 30.15 850 25.1 27.5 81.6 27 6.9 44.5
15:15 1021 30.15 850 25.1 27.5 81.5 26 6.4 43.6
15:20 1021 30.15 850 25.1 27.9 82.2 27 7.4 45.4
15:25 1021 30.15 850 25.1 27.5 81.4 26 6.7 44.1
15:30 1021 30.15 850 25.1 28.1 82.5 23 5.1 41.2
15:35 1021 30.15 850 25.1 27.5 81.6 25 6.1 43
15:40 1021 30.15 850 25.1 28 82.4 25 6.5 43.6
15:45 1021 30.15 850 25.1 28.7 83.7 22 5.5 41.9
15:50 1021 30.15 850 25.1 28.7 83.6 22 5.3 41.5
15:55 1021 30.15 850 25.1 28.2 82.7 24 5.9 42.7
16:00 1021 30.15 850 25.1 28.2 82.8 24 6.1 42.9
16:05 1020 30.12 850 25.1 28.5 83.4 23 5.6 42.2
16:10 1020 30.12 850 25.1 28.7 83.7 23 5.7 42.2
16:15 1020 30.12 850 25.1 28.9 84.1 22 5.6 42
16:20 1020 30.12 850 25.1 28.6 83.4 23 5.5 41.8
16:25 1020 30.12 849 25.07 28.7 83.6 23 5.8 42.4
16:30 1020 30.12 849 25.07 29.2 84.6 23 6.4 43.5
16:35 1020 30.12 849 25.07 29.3 84.7 23 6.5 43.7
16:40 1020 30.12 849 25.07 28.9 83.9 23 5.7 42.3
16:45 1020 30.12 849 25.07 28.8 83.8 19 3.4 38.1
16:50 1020 30.12 849 25.07 28.5 83.4 24 6.5 43.7
16:55 1020 30.12 849 25.07 27.2 80.9 27 6.8 44.2
17:00 1020 30.12 849 25.07 26.8 80.2 28 7 44.7
17:05 1020 30.12 849 25.07 26.6 79.8 28 6.6 44
17:10 1020 30.12 849 25.07 26.3 79.3 29 6.9 44.4
17:15 1020 30.12 849 25.07 25.7 78.3 29 6.5 43.7
17:20 1020 30.12 849 25.07 25.6 78.1 30 6.8 44.2
17:25 1020 30.12 849 25.07 25.7 78.2 29 6.5 43.7
17:30 1020 30.12 849 25.07 25.7 78.3 29 6.6 43.9
17:35 1020 30.12 849 25.07 25.8 78.4 30 7.1 44.7
17:40 1020 30.12 849 25.07 25.5 77.9 30 7.1 44.9
17:45 1020 30.12 849 25.07 25.4 77.7 31 7.4 45.4
17:50 1020 30.12 849 25.07 24.8 76.7 33 7.7 45.9
17:55 1020 30.12 849 25.07 24.2 75.6 36 8.3 46.9
18:00 1021 30.15 850 25.1 23.5 74.3 38 8.4 47.2
18:05 1021 30.15 850 25.1 22.8 73.1 39 8.2 46.8
18:10 1021 30.15 850 25.1 22.6 72.6 40 8.4 47.1
18:15 1021 30.15 850 25.1 22.2 72 41 8.5 47.3
18:20 1021 30.15 850 25.1 22.1 71.7 40 8.2 46.7
18:25 1021 30.15 850 25.1 21.9 71.5 40 8.1 46.5
18:30 1021 30.15 850 25.1 22.1 71.8 40 8.1 46.5
18:35 1021 30.15 850 25.1 22.2 71.9 40 8.3 46.9
18:40 1021 30.15 850 25.1 22.1 71.7 40 8.2 46.7
18:45 1021 30.15 850 25.1 22 71.6 41 8.1 46.6
18:50 1021 30.15 850 25.1 21.9 71.5 41 8.3 46.9
18:55 1021 30.15 850 25.1 21.9 71.5 41 8.3 46.9
19:00 1021 30.15 851 25.13 21.8 71.3 42 8.4 47.1
19:05 1021 30.15 851 25.13 21.7 71.1 42 8.3 47
19:10 1021 30.15 851 25.13 21.6 70.9 41 8.1 46.5
19:15 1022 30.18 851 25.13 21.5 70.8 41 8 46.4
19:20 1022 30.18 851 25.13 21.5 70.6 42 8 46.5
19:25 1022 30.18 851 25.13 21.3 70.4 42 7.9 46.3
19:30 1022 30.18 851 25.13 21.2 70.1 41 7.7 45.9
19:35 1022 30.18 851 25.13 21 69.8 42 7.8 46.1
19:40 1022 30.18 851 25.13 20.9 69.6 42 7.7 45.8
19:45 1022 30.18 851 25.13 20.7 69.2 43 7.7 45.8
19:50 1022 30.18 851 25.13 20.6 69.1 43 7.7 45.8
19:55 1022 30.18 851 25.13 20.6 69 43 7.7 45.9
20:00 1022 30.18 851 25.13 20.4 68.6 44 7.8 46.1
20:05 1022 30.18 851 25.13 20.2 68.3 45 8 46.3
20:10 1022 30.18 851 25.13 20 68 46 8.1 46.5
20:15 1022 30.18 851 25.13 19.8 67.7 47 8.3 47
20:20 1022 30.18 851 25.13 19.6 67.3 49 8.7 47.7
20:25 1022 30.18 851 25.13 19.3 66.7 50 8.9 48
20:30 1022 30.18 851 25.13 19 66.2 52 9.1 48.4
20:35 1022 30.18 851 25.13 18.8 65.8 54 9.3 48.8
20:40 1022 30.18 852 25.16 18.4 65.2 55 9.4 48.9
20:45 1022 30.18 852 25.16 18.3 64.9 56 9.5 49.1
20:50 1022 30.18 852 25.16 18.1 64.6 58 9.8 49.6
20:55 1022 30.18 852 25.16 17.9 64.2 59 10 50
21:00 1023 30.21 852 25.16 17.7 63.9 61 10.1 50.2
21:05 1023 30.21 852 25.16 17.6 63.6 62 10.2 50.3
21:10 1023 30.21 852 25.16 17.4 63.3 63 10.3 50.5
21:15 1023 30.21 852 25.16 17.2 62.9 64 10.4 50.6
21:20 1023 30.21 852 25.16 17 62.7 64 10.3 50.5
21:25 1023 30.21 852 25.16 16.9 62.5 65 10.4 50.7
21:30 1023 30.21 852 25.16 16.8 62.3 65 10.3 50.6
21:35 1023 30.21 852 25.16 16.8 62.2 65 10.2 50.3
21:40 1023 30.21 852 25.16 16.7 62.1 65 10.2 50.4
21:45 1023 30.21 852 25.16 16.6 61.9 65 10.2 50.4
21:50 1023 30.21 852 25.16 16.6 61.8 65 10.1 50.2
21:55 1023 30.21 852 25.16 16.6 61.8 65 10.1 50.2
22:00 1023 30.21 852 25.16 16.5 61.7 65 10 50.1
22:05 1023 30.21 852 25.16 16.5 61.6 65 10 50
22:10 1023 30.21 852 25.16 16.4 61.5 66 10 50
22:15 1023 30.21 852 25.16 16.3 61.3 66 9.9 49.9
22:20 1023 30.21 852 25.16 16.3 61.3 65 9.7 49.5
22:25 1023 30.21 852 25.16 16.3 61.4 65 9.8 49.6
22:30 1023 30.21 852 25.16 16.3 61.3 64 9.6 49.3
22:35 1023 30.21 853 25.19 16.2 61.2 65 9.6 49.3
22:40 1023 30.21 853 25.19 16.2 61.1 65 9.6 49.3
22:45 1023 30.21 853 25.19 16.2 61.1 64 9.5 49.1
22:50 1023 30.21 853 25.19 16.2 61.2 64 9.5 49.2
22:55 1024 30.24 853 25.19 16.1 61 65 9.5 49.1
23:00 1024 30.24 853 25.19 16 60.8 65 9.5 49.1
23:05 1024 30.24 853 25.19 16 60.7 65 9.5 49.2
23:10 1024 30.24 853 25.19 15.9 60.6 65 9.4 49
23:15 1024 30.24 853 25.19 15.9 60.6 65 9.3 48.8
23:20 1024 30.24 853 25.19 16 60.7 64 9.3 48.7
23:25 1024 30.24 853 25.19 16 60.7 64 9.2 48.5
23:30 1024 30.24 853 25.19 15.9 60.7 64 9.2 48.5
23:35 1024 30.24 853 25.19 15.9 60.6 63 9 48.3
23:40 1024 30.24 853 25.19 15.9 60.6 64 9.1 48.4
23:45 1024 30.24 853 25.19 15.9 60.6 63 9 48.2
23:50 1024 30.24 853 25.19 15.9 60.7 63 9.1 48.3
23:55 1024 30.24 853 25.19 15.9 60.6 63 9 48.2
24:00 1024 30.24 853 25.19 15.9 60.6 63 9 48.2